sensor_id;sensor_type;location;lat;lon;timestamp;P1;durP1;ratioP1;P2;durP2;ratioP2
24381;SDS011;12502;50.678;7.172;2022-12-15T00:05:19;55.13;;;24.80;;
24381;SDS011;12502;50.678;7.172;2022-12-15T00:10:39;55.58;;;23.92;;
24381;SDS011;12502;50.678;7.172;2022-12-15T00:15:59;60.45;;;25.25;;
24381;SDS011;12502;50.678;7.172;2022-12-15T00:21:20;54.63;;;23.77;;
24381;SDS011;12502;50.678;7.172;2022-12-15T00:26:40;63.58;;;27.30;;
24381;SDS011;12502;50.678;7.172;2022-12-15T00:32:01;55.88;;;22.75;;
24381;SDS011;12502;50.678;7.172;2022-12-15T00:37:21;48.25;;;21.60;;
24381;SDS011;12502;50.678;7.172;2022-12-15T00:42:42;48.78;;;23.58;;
24381;SDS011;12502;50.678;7.172;2022-12-15T00:47:43;51.42;;;23.40;;
24381;SDS011;12502;50.678;7.172;2022-12-15T00:52:45;48.75;;;22.83;;
24381;SDS011;12502;50.678;7.172;2022-12-15T00:58:05;54.05;;;24.58;;
24381;SDS011;12502;50.678;7.172;2022-12-15T01:03:26;42.92;;;20.85;;
24381;SDS011;12502;50.678;7.172;2022-12-15T01:08:46;42.47;;;20.63;;
24381;SDS011;12502;50.678;7.172;2022-12-15T01:14:07;50.33;;;22.50;;
24381;SDS011;12502;50.678;7.172;2022-12-15T01:19:27;46.22;;;21.92;;
24381;SDS011;12502;50.678;7.172;2022-12-15T01:24:49;44.35;;;20.98;;
24381;SDS011;12502;50.678;7.172;2022-12-15T01:29:51;50.33;;;22.63;;
24381;SDS011;12502;50.678;7.172;2022-12-15T01:34:53;49.10;;;21.42;;
24381;SDS011;12502;50.678;7.172;2022-12-15T01:39:54;44.38;;;21.23;;
24381;SDS011;12502;50.678;7.172;2022-12-15T01:50:33;46.83;;;20.75;;
24381;SDS011;12502;50.678;7.172;2022-12-15T01:55:41;44.03;;;21.27;;
24381;SDS011;12502;50.678;7.172;2022-12-15T02:00:48;49.00;;;22.08;;
24381;SDS011;12502;50.678;7.172;2022-12-15T02:05:49;42.67;;;20.90;;
24381;SDS011;12502;50.678;7.172;2022-12-15T02:11:00;49.15;;;22.48;;
24381;SDS011;12502;50.678;7.172;2022-12-15T02:21:36;51.33;;;21.90;;
24381;SDS011;12502;50.678;7.172;2022-12-15T02:26:59;47.50;;;22.67;;
24381;SDS011;12502;50.678;7.172;2022-12-15T02:32:17;55.53;;;23.02;;
24381;SDS011;12502;50.678;7.172;2022-12-15T02:37:42;56.35;;;23.70;;
24381;SDS011;12502;50.678;7.172;2022-12-15T02:42:51;51.67;;;21.77;;
24381;SDS011;12502;50.678;7.172;2022-12-15T03:03:56;43.85;;;22.08;;
24381;SDS011;12502;50.678;7.172;2022-12-15T03:08:59;47.63;;;20.70;;
24381;SDS011;12502;50.678;7.172;2022-12-15T03:14:01;42.05;;;20.17;;
24381;SDS011;12502;50.678;7.172;2022-12-15T03:19:03;46.35;;;20.85;;
24381;SDS011;12502;50.678;7.172;2022-12-15T03:24:05;46.08;;;20.02;;
24381;SDS011;12502;50.678;7.172;2022-12-15T03:29:07;46.75;;;19.55;;
24381;SDS011;12502;50.678;7.172;2022-12-15T03:34:09;42.33;;;20.55;;
24381;SDS011;12502;50.678;7.172;2022-12-15T03:39:10;45.37;;;20.93;;
24381;SDS011;12502;50.678;7.172;2022-12-15T03:44:12;45.72;;;19.92;;
24381;SDS011;12502;50.678;7.172;2022-12-15T03:49:14;43.15;;;20.08;;
24381;SDS011;12502;50.678;7.172;2022-12-15T03:54:16;44.13;;;19.95;;
24381;SDS011;12502;50.678;7.172;2022-12-15T03:59:18;43.57;;;20.67;;
24381;SDS011;12502;50.678;7.172;2022-12-15T04:04:19;41.63;;;19.92;;
24381;SDS011;12502;50.678;7.172;2022-12-15T04:09:21;45.35;;;20.73;;
24381;SDS011;12502;50.678;7.172;2022-12-15T04:14:23;39.67;;;20.20;;
24381;SDS011;12502;50.678;7.172;2022-12-15T04:19:24;42.65;;;20.17;;
24381;SDS011;12502;50.678;7.172;2022-12-15T04:24:45;48.10;;;20.45;;
24381;SDS011;12502;50.678;7.172;2022-12-15T04:30:06;41.47;;;20.63;;
24381;SDS011;12502;50.678;7.172;2022-12-15T04:35:27;39.33;;;19.35;;
24381;SDS011;12502;50.678;7.172;2022-12-15T04:40:50;38.72;;;18.63;;
24381;SDS011;12502;50.678;7.172;2022-12-15T04:46:10;37.42;;;17.40;;
24381;SDS011;12502;50.678;7.172;2022-12-15T04:51:32;37.65;;;17.65;;
24381;SDS011;12502;50.678;7.172;2022-12-15T04:56:52;43.45;;;18.67;;
24381;SDS011;12502;50.678;7.172;2022-12-15T05:02:12;41.85;;;20.40;;
24381;SDS011;12502;50.678;7.172;2022-12-15T05:07:33;36.45;;;18.83;;
24381;SDS011;12502;50.678;7.172;2022-12-15T05:12:53;34.10;;;16.58;;
24381;SDS011;12502;50.678;7.172;2022-12-15T05:18:14;40.88;;;18.80;;
24381;SDS011;12502;50.678;7.172;2022-12-15T05:23:34;35.45;;;18.08;;
24381;SDS011;12502;50.678;7.172;2022-12-15T05:28:54;37.92;;;18.30;;
24381;SDS011;12502;50.678;7.172;2022-12-15T05:34:15;34.28;;;16.83;;
24381;SDS011;12502;50.678;7.172;2022-12-15T05:39:17;37.33;;;18.58;;
24381;SDS011;12502;50.678;7.172;2022-12-15T05:44:19;48.78;;;20.10;;
24381;SDS011;12502;50.678;7.172;2022-12-15T05:49:21;49.97;;;21.27;;
24381;SDS011;12502;50.678;7.172;2022-12-15T05:54:25;50.33;;;20.15;;
24381;SDS011;12502;50.678;7.172;2022-12-15T05:59:27;49.03;;;20.83;;
24381;SDS011;12502;50.678;7.172;2022-12-15T06:04:29;60.83;;;23.05;;
24381;SDS011;12502;50.678;7.172;2022-12-15T06:09:31;56.28;;;24.00;;
24381;SDS011;12502;50.678;7.172;2022-12-15T06:14:32;64.68;;;25.77;;
24381;SDS011;12502;50.678;7.172;2022-12-15T06:19:34;65.97;;;23.85;;
24381;SDS011;12502;50.678;7.172;2022-12-15T06:24:36;56.72;;;22.70;;
24381;SDS011;12502;50.678;7.172;2022-12-15T06:29:37;60.70;;;24.00;;
24381;SDS011;12502;50.678;7.172;2022-12-15T06:34:39;66.85;;;25.33;;
24381;SDS011;12502;50.678;7.172;2022-12-15T06:39:41;49.23;;;19.63;;
24381;SDS011;12502;50.678;7.172;2022-12-15T06:44:43;59.35;;;24.77;;
24381;SDS011;12502;50.678;7.172;2022-12-15T06:49:45;61.00;;;25.17;;
24381;SDS011;12502;50.678;7.172;2022-12-15T06:54:46;70.63;;;25.70;;
24381;SDS011;12502;50.678;7.172;2022-12-15T06:59:48;70.82;;;27.27;;
24381;SDS011;12502;50.678;7.172;2022-12-15T07:04:50;70.47;;;27.55;;
24381;SDS011;12502;50.678;7.172;2022-12-15T07:09:51;78.78;;;27.83;;
24381;SDS011;12502;50.678;7.172;2022-12-15T07:14:53;75.93;;;27.92;;
24381;SDS011;12502;50.678;7.172;2022-12-15T07:19:55;84.28;;;28.92;;
24381;SDS011;12502;50.678;7.172;2022-12-15T07:24:57;87.55;;;29.15;;
24381;SDS011;12502;50.678;7.172;2022-12-15T07:29:58;80.05;;;27.10;;
24381;SDS011;12502;50.678;7.172;2022-12-15T07:35:00;79.18;;;29.27;;
24381;SDS011;12502;50.678;7.172;2022-12-15T07:40:05;78.72;;;28.00;;
24381;SDS011;12502;50.678;7.172;2022-12-15T07:45:08;79.97;;;29.15;;
24381;SDS011;12502;50.678;7.172;2022-12-15T07:55:12;77.25;;;31.42;;
24381;SDS011;12502;50.678;7.172;2022-12-15T08:00:14;85.25;;;33.40;;
24381;SDS011;12502;50.678;7.172;2022-12-15T08:10:19;73.82;;;33.42;;
24381;SDS011;12502;50.678;7.172;2022-12-15T08:15:21;85.88;;;32.33;;
24381;SDS011;12502;50.678;7.172;2022-12-15T08:20:22;82.32;;;33.03;;
24381;SDS011;12502;50.678;7.172;2022-12-15T08:30:31;84.47;;;33.70;;
24381;SDS011;12502;50.678;7.172;2022-12-15T08:35:34;83.65;;;31.98;;
24381;SDS011;12502;50.678;7.172;2022-12-15T08:40:57;79.13;;;31.90;;
24381;SDS011;12502;50.678;7.172;2022-12-15T08:46:06;87.40;;;32.88;;
24381;SDS011;12502;50.678;7.172;2022-12-15T08:51:10;87.63;;;34.03;;
24381;SDS011;12502;50.678;7.172;2022-12-15T08:56:13;85.50;;;33.80;;
24381;SDS011;12502;50.678;7.172;2022-12-15T09:01:18;84.32;;;34.85;;
24381;SDS011;12502;50.678;7.172;2022-12-15T09:06:25;84.95;;;33.88;;
24381;SDS011;12502;50.678;7.172;2022-12-15T09:11:29;91.18;;;33.88;;
24381;SDS011;12502;50.678;7.172;2022-12-15T09:16:31;88.03;;;33.20;;
24381;SDS011;12502;50.678;7.172;2022-12-15T09:21:33;71.30;;;28.88;;
24381;SDS011;12502;50.678;7.172;2022-12-15T09:26:35;73.68;;;31.50;;
24381;SDS011;12502;50.678;7.172;2022-12-15T09:31:37;73.07;;;30.13;;
24381;SDS011;12502;50.678;7.172;2022-12-15T09:36:39;72.10;;;30.67;;
24381;SDS011;12502;50.678;7.172;2022-12-15T09:41:41;82.70;;;32.95;;
24381;SDS011;12502;50.678;7.172;2022-12-15T09:47:11;73.93;;;31.50;;
24381;SDS011;12502;50.678;7.172;2022-12-15T09:52:28;81.63;;;34.10;;
24381;SDS011;12502;50.678;7.172;2022-12-15T10:08:41;66.35;;;29.45;;
24381;SDS011;12502;50.678;7.172;2022-12-15T10:13:53;66.50;;;28.80;;
24381;SDS011;12502;50.678;7.172;2022-12-15T10:19:19;58.78;;;26.48;;
24381;SDS011;12502;50.678;7.172;2022-12-15T10:24:30;57.30;;;26.07;;
24381;SDS011;12502;50.678;7.172;2022-12-15T10:29:58;56.55;;;26.92;;
24381;SDS011;12502;50.678;7.172;2022-12-15T10:35:11;53.63;;;24.83;;
24381;SDS011;12502;50.678;7.172;2022-12-15T10:40:42;55.97;;;26.08;;
24381;SDS011;12502;50.678;7.172;2022-12-15T10:51:26;63.67;;;29.27;;
24381;SDS011;12502;50.678;7.172;2022-12-15T10:56:28;65.07;;;29.30;;
24381;SDS011;12502;50.678;7.172;2022-12-15T11:01:34;64.70;;;30.27;;
24381;SDS011;12502;50.678;7.172;2022-12-15T11:06:36;57.67;;;27.35;;
24381;SDS011;12502;50.678;7.172;2022-12-15T11:11:45;63.50;;;29.23;;
24381;SDS011;12502;50.678;7.172;2022-12-15T11:17:16;62.25;;;30.08;;
24381;SDS011;12502;50.678;7.172;2022-12-15T11:22:39;66.75;;;29.27;;
24381;SDS011;12502;50.678;7.172;2022-12-15T11:27:47;59.55;;;25.17;;
24381;SDS011;12502;50.678;7.172;2022-12-15T11:32:52;49.90;;;24.35;;
24381;SDS011;12502;50.678;7.172;2022-12-15T11:48:40;68.45;;;30.92;;
24381;SDS011;12502;50.678;7.172;2022-12-15T11:59:37;71.50;;;30.95;;
24381;SDS011;12502;50.678;7.172;2022-12-15T12:05:21;61.83;;;28.65;;
24381;SDS011;12502;50.678;7.172;2022-12-15T12:21:10;66.05;;;31.20;;
24381;SDS011;12502;50.678;7.172;2022-12-15T12:31:37;72.28;;;31.67;;
24381;SDS011;12502;50.678;7.172;2022-12-15T12:36:50;66.70;;;31.65;;
24381;SDS011;12502;50.678;7.172;2022-12-15T12:47:25;64.72;;;30.40;;
24381;SDS011;12502;50.678;7.172;2022-12-15T12:52:34;64.20;;;30.25;;
24381;SDS011;12502;50.678;7.172;2022-12-15T12:57:38;64.13;;;29.58;;
24381;SDS011;12502;50.678;7.172;2022-12-15T13:19:17;65.25;;;30.58;;
24381;SDS011;12502;50.678;7.172;2022-12-15T13:24:02;68.75;;;31.00;;
24381;SDS011;12502;50.678;7.172;2022-12-15T13:29:04;73.10;;;32.97;;
24381;SDS011;12502;50.678;7.172;2022-12-15T13:34:13;65.85;;;30.95;;
24381;SDS011;12502;50.678;7.172;2022-12-15T13:44:36;63.13;;;31.30;;
24381;SDS011;12502;50.678;7.172;2022-12-15T13:55:04;65.15;;;31.50;;
24381;SDS011;12502;50.678;7.172;2022-12-15T14:00:16;70.93;;;32.75;;
24381;SDS011;12502;50.678;7.172;2022-12-15T14:05:21;71.07;;;31.33;;
24381;SDS011;12502;50.678;7.172;2022-12-15T14:15:40;71.53;;;32.30;;
24381;SDS011;12502;50.678;7.172;2022-12-15T14:20:45;70.13;;;32.88;;
24381;SDS011;12502;50.678;7.172;2022-12-15T14:25:56;68.28;;;30.95;;
24381;SDS011;12502;50.678;7.172;2022-12-15T14:31:10;72.72;;;31.73;;
24381;SDS011;12502;50.678;7.172;2022-12-15T14:36:17;68.05;;;32.67;;
24381;SDS011;12502;50.678;7.172;2022-12-15T14:46:24;69.65;;;32.08;;
24381;SDS011;12502;50.678;7.172;2022-12-15T14:51:28;66.90;;;30.92;;
24381;SDS011;12502;50.678;7.172;2022-12-15T14:56:38;73.95;;;34.92;;
24381;SDS011;12502;50.678;7.172;2022-12-15T15:01:49;72.47;;;34.00;;
24381;SDS011;12502;50.678;7.172;2022-12-15T15:07:03;71.72;;;31.80;;
24381;SDS011;12502;50.678;7.172;2022-12-15T15:12:14;71.95;;;32.35;;
24381;SDS011;12502;50.678;7.172;2022-12-15T15:17:22;66.95;;;30.25;;
24381;SDS011;12502;50.678;7.172;2022-12-15T15:22:40;69.82;;;33.00;;
24381;SDS011;12502;50.678;7.172;2022-12-15T15:27:42;73.22;;;31.38;;
24381;SDS011;12502;50.678;7.172;2022-12-15T15:32:52;67.68;;;30.88;;
24381;SDS011;12502;50.678;7.172;2022-12-15T15:37:58;67.28;;;29.75;;
24381;SDS011;12502;50.678;7.172;2022-12-15T15:43:09;73.25;;;31.00;;
24381;SDS011;12502;50.678;7.172;2022-12-15T15:48:23;67.50;;;31.05;;
24381;SDS011;12502;50.678;7.172;2022-12-15T15:53:29;71.20;;;30.92;;
24381;SDS011;12502;50.678;7.172;2022-12-15T15:58:33;73.40;;;32.78;;
24381;SDS011;12502;50.678;7.172;2022-12-15T16:08:38;76.70;;;33.20;;
24381;SDS011;12502;50.678;7.172;2022-12-15T16:13:40;85.40;;;35.38;;
24381;SDS011;12502;50.678;7.172;2022-12-15T16:18:42;82.40;;;35.67;;
24381;SDS011;12502;50.678;7.172;2022-12-15T16:23:45;82.13;;;35.78;;
24381;SDS011;12502;50.678;7.172;2022-12-15T16:28:48;86.97;;;38.15;;
24381;SDS011;12502;50.678;7.172;2022-12-15T16:33:50;87.75;;;37.85;;
24381;SDS011;12502;50.678;7.172;2022-12-15T16:38:51;92.80;;;40.15;;
24381;SDS011;12502;50.678;7.172;2022-12-15T16:43:53;90.65;;;38.72;;
24381;SDS011;12502;50.678;7.172;2022-12-15T16:48:55;95.78;;;38.80;;
24381;SDS011;12502;50.678;7.172;2022-12-15T16:53:57;90.70;;;40.60;;
24381;SDS011;12502;50.678;7.172;2022-12-15T16:58:58;100.80;;;40.72;;
24381;SDS011;12502;50.678;7.172;2022-12-15T17:04:20;88.05;;;37.95;;
24381;SDS011;12502;50.678;7.172;2022-12-15T17:09:23;85.67;;;36.60;;
24381;SDS011;12502;50.678;7.172;2022-12-15T17:14:26;92.07;;;38.55;;
24381;SDS011;12502;50.678;7.172;2022-12-15T17:19:27;89.00;;;38.03;;
24381;SDS011;12502;50.678;7.172;2022-12-15T17:24:29;92.65;;;39.42;;
24381;SDS011;12502;50.678;7.172;2022-12-15T17:29:31;86.43;;;36.70;;
24381;SDS011;12502;50.678;7.172;2022-12-15T17:34:33;88.68;;;39.30;;
24381;SDS011;12502;50.678;7.172;2022-12-15T17:39:35;90.50;;;37.83;;
24381;SDS011;12502;50.678;7.172;2022-12-15T17:44:37;71.57;;;30.50;;
24381;SDS011;12502;50.678;7.172;2022-12-15T17:49:40;67.33;;;31.00;;
24381;SDS011;12502;50.678;7.172;2022-12-15T17:54:42;86.45;;;38.08;;
24381;SDS011;12502;50.678;7.172;2022-12-15T17:59:44;84.28;;;36.70;;
24381;SDS011;12502;50.678;7.172;2022-12-15T18:04:46;96.95;;;38.05;;
24381;SDS011;12502;50.678;7.172;2022-12-15T18:09:48;92.80;;;37.35;;
24381;SDS011;12502;50.678;7.172;2022-12-15T18:14:51;81.03;;;36.97;;
24381;SDS011;12502;50.678;7.172;2022-12-15T18:19:53;90.90;;;37.28;;
24381;SDS011;12502;50.678;7.172;2022-12-15T18:24:55;91.05;;;39.03;;
24381;SDS011;12502;50.678;7.172;2022-12-15T18:29:57;84.22;;;33.97;;
24381;SDS011;12502;50.678;7.172;2022-12-15T18:34:59;83.70;;;35.13;;
24381;SDS011;12502;50.678;7.172;2022-12-15T18:40:01;87.95;;;36.78;;
24381;SDS011;12502;50.678;7.172;2022-12-15T18:45:12;81.68;;;36.15;;
24381;SDS011;12502;50.678;7.172;2022-12-15T18:50:21;100.55;;;39.47;;
24381;SDS011;12502;50.678;7.172;2022-12-15T18:55:24;85.22;;;34.67;;
24381;SDS011;12502;50.678;7.172;2022-12-15T19:00:29;84.43;;;34.40;;
24381;SDS011;12502;50.678;7.172;2022-12-15T19:05:32;92.30;;;36.78;;
24381;SDS011;12502;50.678;7.172;2022-12-15T19:10:35;88.15;;;36.30;;
24381;SDS011;12502;50.678;7.172;2022-12-15T19:15:40;81.32;;;34.55;;
24381;SDS011;12502;50.678;7.172;2022-12-15T19:20:42;84.03;;;36.33;;
24381;SDS011;12502;50.678;7.172;2022-12-15T19:26:02;79.80;;;32.38;;
24381;SDS011;12502;50.678;7.172;2022-12-15T19:31:04;93.97;;;36.85;;
24381;SDS011;12502;50.678;7.172;2022-12-15T19:36:10;83.57;;;35.03;;
24381;SDS011;12502;50.678;7.172;2022-12-15T19:41:16;84.85;;;34.50;;
24381;SDS011;12502;50.678;7.172;2022-12-15T19:46:19;83.93;;;34.25;;
24381;SDS011;12502;50.678;7.172;2022-12-15T19:51:21;80.15;;;32.67;;
24381;SDS011;12502;50.678;7.172;2022-12-15T20:01:27;81.68;;;33.78;;
24381;SDS011;12502;50.678;7.172;2022-12-15T20:06:28;83.75;;;33.03;;
24381;SDS011;12502;50.678;7.172;2022-12-15T20:11:31;94.10;;;36.30;;
24381;SDS011;12502;50.678;7.172;2022-12-15T20:16:33;87.03;;;34.83;;
24381;SDS011;12502;50.678;7.172;2022-12-15T20:21:35;87.68;;;35.13;;
24381;SDS011;12502;50.678;7.172;2022-12-15T20:26:39;81.85;;;34.47;;
24381;SDS011;12502;50.678;7.172;2022-12-15T20:31:41;95.03;;;36.90;;
24381;SDS011;12502;50.678;7.172;2022-12-15T20:36:43;106.65;;;40.28;;
24381;SDS011;12502;50.678;7.172;2022-12-15T20:41:47;95.28;;;35.95;;
24381;SDS011;12502;50.678;7.172;2022-12-15T20:46:49;91.85;;;35.38;;
24381;SDS011;12502;50.678;7.172;2022-12-15T20:51:51;87.72;;;34.10;;
24381;SDS011;12502;50.678;7.172;2022-12-15T20:56:53;86.60;;;35.35;;
24381;SDS011;12502;50.678;7.172;2022-12-15T21:01:54;94.28;;;34.17;;
24381;SDS011;12502;50.678;7.172;2022-12-15T21:06:56;91.28;;;35.25;;
24381;SDS011;12502;50.678;7.172;2022-12-15T21:11:58;92.72;;;34.05;;
24381;SDS011;12502;50.678;7.172;2022-12-15T21:17:16;82.50;;;33.45;;
24381;SDS011;12502;50.678;7.172;2022-12-15T21:22:22;89.03;;;34.88;;
24381;SDS011;12502;50.678;7.172;2022-12-15T21:27:27;71.20;;;30.27;;
24381;SDS011;12502;50.678;7.172;2022-12-15T21:32:31;84.88;;;33.78;;
24381;SDS011;12502;50.678;7.172;2022-12-15T21:37:33;85.25;;;33.80;;
24381;SDS011;12502;50.678;7.172;2022-12-15T21:42:35;87.57;;;34.63;;
24381;SDS011;12502;50.678;7.172;2022-12-15T21:47:37;84.32;;;32.90;;
24381;SDS011;12502;50.678;7.172;2022-12-15T21:52:57;81.90;;;31.05;;
24381;SDS011;12502;50.678;7.172;2022-12-15T21:58:00;86.43;;;30.13;;
24381;SDS011;12502;50.678;7.172;2022-12-15T22:03:02;85.85;;;32.22;;
24381;SDS011;12502;50.678;7.172;2022-12-15T22:08:19;85.25;;;33.40;;
24381;SDS011;12502;50.678;7.172;2022-12-15T22:13:22;80.53;;;32.28;;
24381;SDS011;12502;50.678;7.172;2022-12-15T22:18:24;87.28;;;34.10;;
24381;SDS011;12502;50.678;7.172;2022-12-15T22:23:25;78.35;;;31.45;;
24381;SDS011;12502;50.678;7.172;2022-12-15T22:28:27;81.07;;;31.27;;
24381;SDS011;12502;50.678;7.172;2022-12-15T22:33:30;90.47;;;32.90;;
24381;SDS011;12502;50.678;7.172;2022-12-15T22:38:31;77.70;;;30.77;;
24381;SDS011;12502;50.678;7.172;2022-12-15T22:43:38;82.67;;;31.57;;
24381;SDS011;12502;50.678;7.172;2022-12-15T22:48:43;80.95;;;30.55;;
24381;SDS011;12502;50.678;7.172;2022-12-15T22:53:47;81.50;;;31.23;;
24381;SDS011;12502;50.678;7.172;2022-12-15T22:58:49;70.28;;;29.15;;
24381;SDS011;12502;50.678;7.172;2022-12-15T23:03:55;75.97;;;31.08;;
24381;SDS011;12502;50.678;7.172;2022-12-15T23:08:57;81.68;;;30.67;;
24381;SDS011;12502;50.678;7.172;2022-12-15T23:13:59;79.10;;;29.85;;
24381;SDS011;12502;50.678;7.172;2022-12-15T23:19:01;82.65;;;29.85;;
24381;SDS011;12502;50.678;7.172;2022-12-15T23:24:03;69.80;;;27.40;;
24381;SDS011;12502;50.678;7.172;2022-12-15T23:29:05;69.70;;;28.10;;
24381;SDS011;12502;50.678;7.172;2022-12-15T23:34:07;76.32;;;28.00;;
24381;SDS011;12502;50.678;7.172;2022-12-15T23:39:11;65.95;;;25.60;;
24381;SDS011;12502;50.678;7.172;2022-12-15T23:44:15;65.53;;;26.20;;
24381;SDS011;12502;50.678;7.172;2022-12-15T23:49:17;67.30;;;26.15;;
24381;SDS011;12502;50.678;7.172;2022-12-15T23:54:18;68.05;;;26.92;;
24381;SDS011;12502;50.678;7.172;2022-12-15T23:59:20;65.60;;;25.98;;
